Time;durP1;ratioP1;P1;durP2;ratioP2;P2;SDS_P1;SDS_P2;PMS_P1;PMS_P2;Temp;Humidity;BMP_temperature;BMP_pressure;BME280_temperature;BME280_humidity;BME280_pressure;Samples;Min_cycle;Max_cycle;Signal;HPM_P1;HPM_P2
2021/08/20 00:01:09;;;;;;;11.27;5.65;;;;;;;26.84;56.22;100441.28;4966318;28;20487;-71
2021/08/20 00:03:37;;;;;;;14.10;5.68;;;;;;;26.89;56.24;100441.91;4966283;28;20491;-72
2021/08/20 00:06:05;;;;;;;12.75;6.50;;;;;;;26.88;55.50;100446.41;4964531;28;20058;-71
2021/08/20 00:08:33;;;;;;;13.13;6.68;;;;;;;26.84;55.46;100452.97;4966877;28;20503;-72
2021/08/20 00:11:03;;;;;;;11.38;5.95;;;;;;;26.84;55.29;100452.97;4965419;28;20043;-72
2021/08/20 00:13:30;;;;;;;11.70;5.95;;;;;;;26.86;55.35;100452.88;4964570;28;20035;-72
2021/08/20 00:15:58;;;;;;;11.38;6.72;;;;;;;26.85;55.12;100453.81;4965562;28;20035;-72
2021/08/20 00:18:25;;;;;;;9.65;5.30;;;;;;;26.93;54.12;100448.88;4965855;28;20066;-71
2021/08/20 00:20:55;;;;;;;9.00;6.20;;;;;;;26.96;53.67;100446.91;4963238;28;20051;-71
2021/08/20 00:23:22;;;;;;;12.18;5.57;;;;;;;27.01;53.25;100454.75;4962820;28;20039;-71
2021/08/20 00:25:50;;;;;;;13.68;6.15;;;;;;;27.14;53.00;100449.50;4966633;28;20062;-71
2021/08/20 00:28:18;;;;;;;12.10;5.40;;;;;;;27.11;52.31;100447.81;4965621;28;20107;-70
2021/08/20 00:30:47;;;;;;;12.32;6.03;;;;;;;27.13;52.48;100456.75;4966897;28;20491;-70
2021/08/20 00:33:16;;;;;;;10.77;5.72;;;;;;;27.08;52.47;100449.84;4970358;28;20447;-71
2021/08/20 00:35:43;;;;;;;10.05;6.00;;;;;;;27.09;52.65;100452.47;4969104;28;20043;-72
2021/08/20 00:38:12;;;;;;;11.95;5.90;;;;;;;27.09;52.45;100455.19;4968801;28;20458;-71
2021/08/20 00:40:40;;;;;;;11.25;6.10;;;;;;;27.09;52.69;100457.03;4970083;28;20380;-72
2021/08/20 00:43:09;;;;;;;13.95;6.13;;;;;;;27.11;52.43;100446.97;4970525;28;20050;-72
2021/08/20 00:45:37;;;;;;;13.57;5.60;;;;;;;27.07;52.77;100453.53;4965384;28;20046;-71
2021/08/20 00:48:06;;;;;;;10.75;5.53;;;;;;;27.00;52.42;100454.84;4968808;28;20495;-71
2021/08/20 00:50:33;;;;;;;12.68;6.32;;;;;;;26.95;53.33;100455.97;4970887;28;20042;-71
2021/08/20 00:53:00;;;;;;;11.15;5.57;;;;;;;26.86;52.88;100458.28;4969783;28;20043;-71
2021/08/20 00:55:29;;;;;;;12.10;6.30;;;;;;;26.78;53.95;100457.88;4967025;28;20055;-71
2021/08/20 00:57:58;;;;;;;12.52;6.45;;;;;;;26.79;53.85;100455.06;4970485;28;20394;-71
2021/08/20 01:00:25;;;;;;;9.95;6.10;;;;;;;26.82;53.77;100452.19;4965840;28;20058;-71
2021/08/20 01:02:53;;;;;;;12.57;5.85;;;;;;;26.82;53.83;100446.75;4967890;28;20051;-71
2021/08/20 01:05:21;;;;;;;11.43;6.70;;;;;;;26.93;54.32;100448.88;4968858;28;20446;-71
2021/08/20 01:07:48;;;;;;;10.18;6.65;;;;;;;26.95;54.01;100445.13;4969595;28;20130;-71
2021/08/20 01:10:16;;;;;;;13.23;6.50;;;;;;;26.98;54.32;100453.06;4967073;28;20042;-70
2021/08/20 01:12:45;;;;;;;12.15;7.25;;;;;;;27.05;54.56;100450.00;4967632;28;20064;-71
2021/08/20 01:15:13;;;;;;;15.02;7.18;;;;;;;27.04;55.27;100449.16;4968482;28;20160;-71
2021/08/20 01:17:40;;;;;;;14.90;7.60;;;;;;;26.98;55.37;100450.38;4970139;28;20144;-71
2021/08/20 01:20:11;;;;;;;16.08;7.28;;;;;;;26.96;55.97;100455.03;4968349;28;20057;-71
2021/08/20 01:22:40;;;;;;;13.00;6.85;;;;;;;26.86;56.59;100451.03;4963421;28;21025;-70
2021/08/20 01:25:10;;;;;;;12.93;6.50;;;;;;;26.80;56.77;100451.38;4963541;28;20047;-71
2021/08/20 01:27:38;;;;;;;11.20;6.40;;;;;;;26.79;57.56;100452.34;4962172;28;20050;-71
2021/08/20 01:30:08;;;;;;;13.13;7.00;;;;;;;26.86;57.50;100442.91;4965381;28;20058;-71
2021/08/20 01:32:35;;;;;;;12.23;6.78;;;;;;;26.90;56.98;100452.66;4970408;28;20058;-71
2021/08/20 01:35:03;;;;;;;13.30;7.05;;;;;;;26.85;57.24;100443.00;4965505;28;20043;-71
2021/08/20 01:37:30;;;;;;;11.95;6.18;;;;;;;26.75;57.21;100439.94;4967475;28;20411;-71
2021/08/20 01:39:57;;;;;;;12.32;7.10;;;;;;;26.69;57.71;100440.28;4970464;28;20042;-71
2021/08/20 01:42:26;;;;;;;15.02;7.55;;;;;;;26.76;57.66;100448.94;4967594;28;20047;-71
2021/08/20 01:44:54;;;;;;;17.50;7.55;;;;;;;26.64;57.83;100450.50;4966968;28;20055;-71
2021/08/20 01:47:21;;;;;;;13.63;6.90;;;;;;;26.57;58.13;100451.81;4965893;28;20051;-70
2021/08/20 01:49:48;;;;;;;11.00;7.25;;;;;;;26.60;58.29;100448.91;4969306;28;20522;-71
2021/08/20 01:52:16;;;;;;;11.88;7.60;;;;;;;26.57;58.19;100455.41;4968044;28;20121;-69
2021/08/20 01:54:43;;;;;;;13.10;7.20;;;;;;;26.58;58.36;100450.88;4968947;28;20039;-70
2021/08/20 01:57:11;;;;;;;13.85;7.03;;;;;;;26.61;58.28;100450.66;4942971;28;20709;-71
2021/08/20 01:59:42;;;;;;;15.18;7.30;;;;;;;26.62;58.11;100456.97;4962301;28;20035;-71
2021/08/20 02:02:09;;;;;;;13.57;7.70;;;;;;;26.62;58.39;100452.44;4966577;28;20039;-71
2021/08/20 02:04:36;;;;;;;11.38;7.68;;;;;;;26.64;58.60;100455.94;4967823;28;20062;-71
2021/08/20 02:07:04;;;;;;;16.02;7.50;;;;;;;26.65;58.20;100456.81;4965205;28;20065;-72
2021/08/20 02:09:31;;;;;;;15.07;7.97;;;;;;;26.60;58.17;100448.91;4968879;28;20065;-71
2021/08/20 02:11:58;;;;;;;13.30;7.60;;;;;;;26.55;58.15;100457.31;4966590;28;20054;-71
2021/08/20 02:14:26;;;;;;;14.10;7.03;;;;;;;26.58;57.90;100446.28;4966633;28;20046;-71
2021/08/20 02:16:55;;;;;;;14.63;8.18;;;;;;;26.60;58.43;100446.22;4965610;28;20094;-72
2021/08/20 02:19:23;;;;;;;14.35;7.53;;;;;;;26.53;58.56;100442.09;4968150;28;20082;-71
2021/08/20 02:21:50;;;;;;;17.58;8.25;;;;;;;26.49;58.62;100444.09;4969348;28;20046;-71
2021/08/20 02:24:17;;;;;;;17.27;7.13;;;;;;;26.47;58.59;100443.31;4965154;28;20035;-70
2021/08/20 02:26:44;;;;;;;15.18;7.28;;;;;;;26.42;58.18;100445.41;4969260;28;20039;-72
2021/08/20 02:29:12;;;;;;;13.82;8.40;;;;;;;26.42;58.52;100441.81;4968777;28;20047;-71
2021/08/20 02:31:39;;;;;;;15.63;6.80;;;;;;;26.37;58.61;100435.78;4967947;28;20380;-71
2021/08/20 02:34:08;;;;;;;17.67;7.40;;;;;;;26.38;58.53;100433.00;4966301;28;20039;-71
2021/08/20 02:36:35;;;;;;;12.88;7.00;;;;;;;26.35;57.71;100440.41;4966697;28;20055;-72
2021/08/20 02:39:04;;;;;;;12.73;7.35;;;;;;;26.39;57.68;100440.16;4967586;28;20050;-71
2021/08/20 02:41:31;;;;;;;11.88;7.28;;;;;;;26.38;57.33;100440.25;4967725;28;20450;-72
2021/08/20 02:43:59;;;;;;;14.75;7.00;;;;;;;26.43;56.63;100444.44;4968586;28;20053;-71
2021/08/20 02:46:26;;;;;;;19.38;8.18;;;;;;;26.42;56.69;100441.81;4965227;28;20054;-72
2021/08/20 02:48:54;;;;;;;13.18;7.22;;;;;;;26.35;57.16;100453.94;4967418;28;20050;-71
2021/08/20 02:51:22;;;;;;;14.80;8.07;;;;;;;26.36;57.06;100450.28;4964054;28;20045;-71
2021/08/20 02:53:50;;;;;;;11.05;6.22;;;;;;;26.30;57.16;100467.72;4966023;28;20834;-69
2021/08/20 02:56:18;;;;;;;13.95;8.02;;;;;;;26.26;56.90;100458.00;4966965;28;20039;-71
2021/08/20 02:58:45;;;;;;;15.90;7.03;;;;;;;26.29;56.59;100465.97;4968753;28;20047;-72
2021/08/20 03:01:14;;;;;;;12.13;7.05;;;;;;;26.33;56.46;100472.09;4961516;28;20062;-72
2021/08/20 03:03:41;;;;;;;13.35;6.40;;;;;;;26.37;56.54;100471.00;4966417;28;20384;-72
2021/08/20 03:06:09;;;;;;;13.43;6.85;;;;;;;26.39;56.08;100467.22;4967659;28;20490;-71
2021/08/20 03:08:38;;;;;;;13.63;7.38;;;;;;;26.41;56.13;100465.31;4961514;28;20055;-71
2021/08/20 03:11:05;;;;;;;11.05;8.10;;;;;;;26.39;56.20;100466.34;4963995;28;20057;-72
2021/08/20 03:13:33;;;;;;;17.13;7.65;;;;;;;26.36;56.79;100463.81;4965802;28;20045;-71
2021/08/20 03:16:00;;;;;;;14.18;7.32;;;;;;;26.39;56.80;100471.75;4967889;28;20439;-72
2021/08/20 03:18:28;;;;;;;14.38;7.43;;;;;;;26.38;56.84;100476.31;4965300;28;20055;-72
2021/08/20 03:20:55;;;;;;;14.55;8.18;;;;;;;26.38;57.08;100479.03;4966178;28;20498;-71
2021/08/20 03:23:22;;;;;;;11.95;7.95;;;;;;;26.39;57.82;100485.28;4963405;28;20047;-71
2021/08/20 03:25:51;;;;;;;13.20;7.65;;;;;;;26.33;58.23;100477.50;4965853;28;20050;-71
2021/08/20 03:28:19;;;;;;;14.88;8.45;;;;;;;26.24;58.53;100488.81;4966641;28;20043;-71
2021/08/20 03:30:46;;;;;;;17.95;9.95;;;;;;;26.28;58.86;100487.72;4967854;28;20428;-69
2021/08/20 03:33:13;;;;;;;18.58;8.60;;;;;;;26.28;59.47;100485.88;4965271;28;20509;-71
2021/08/20 03:35:40;;;;;;;20.98;8.05;;;;;;;26.29;59.12;100490.34;4967515;28;20751;-72
2021/08/20 03:38:08;;;;;;;12.95;8.70;;;;;;;26.31;59.57;100491.16;4963122;28;20062;-72
2021/08/20 03:40:35;;;;;;;19.30;9.40;;;;;;;26.32;60.01;100482.03;4968450;28;20050;-71
2021/08/20 03:43:04;;;;;;;13.68;9.25;;;;;;;26.34;60.24;100492.78;4967683;28;20043;-71
2021/08/20 03:45:31;;;;;;;15.75;8.30;;;;;;;26.38;59.58;100491.69;4965105;28;20526;-72
2021/08/20 03:47:58;;;;;;;14.38;9.55;;;;;;;26.43;59.48;100495.03;4965856;28;20039;-71
2021/08/20 03:50:26;;;;;;;11.43;7.88;;;;;;;26.43;60.08;100493.19;4964643;28;20058;-72
2021/08/20 03:52:53;;;;;;;13.98;8.00;;;;;;;26.46;59.43;100493.00;4955835;28;20047;-72
2021/08/20 03:55:21;;;;;;;16.58;8.43;;;;;;;26.50;59.60;100488.31;4965163;28;20038;-71
2021/08/20 03:57:49;;;;;;;15.93;7.95;;;;;;;26.52;59.88;100494.50;4967807;28;20051;-70
2021/08/20 04:00:19;;;;;;;14.98;9.32;;;;;;;26.56;59.81;100491.56;4963001;28;20078;-69
2021/08/20 04:02:47;;;;;;;18.67;7.80;;;;;;;26.58;59.34;100505.03;4966079;28;20146;-70
2021/08/20 04:05:14;;;;;;;12.48;7.15;;;;;;;26.68;59.42;100491.84;4969614;28;20049;-72
2021/08/20 04:07:41;;;;;;;11.43;7.93;;;;;;;26.80;59.18;100502.88;4971625;28;20487;-72
2021/08/20 04:10:09;;;;;;;15.45;8.25;;;;;;;26.95;59.19;100502.06;4968300;28;20050;-72
2021/08/20 04:12:37;;;;;;;14.50;8.65;;;;;;;27.11;59.41;100510.16;4969987;28;20054;-72
2021/08/20 04:15:05;;;;;;;18.48;8.20;;;;;;;27.23;58.94;100505.91;4968086;28;20034;-71
2021/08/20 04:17:34;;;;;;;11.77;7.00;;;;;;;27.28;58.74;100503.81;4969898;28;20050;-72
2021/08/20 04:20:01;;;;;;;12.63;7.47;;;;;;;27.36;59.12;100499.69;4967472;28;20043;-72
2021/08/20 04:22:28;;;;;;;16.70;8.27;;;;;;;27.54;58.40;100511.31;4969341;28;20058;-72
2021/08/20 04:24:55;;;;;;;12.98;7.95;;;;;;;27.66;58.19;100505.16;4970944;28;20047;-72
2021/08/20 04:27:23;;;;;;;16.73;7.55;;;;;;;27.81;58.21;100505.22;4969073;28;20048;-72
2021/08/20 04:29:50;;;;;;;14.93;8.68;;;;;;;27.95;57.80;100508.88;4969784;28;20058;-72
2021/08/20 04:32:18;;;;;;;12.45;7.63;;;;;;;28.12;57.07;100511.41;4967507;28;20065;-72
2021/08/20 04:34:46;;;;;;;12.48;7.20;;;;;;;28.28;56.48;100518.66;4968416;28;20054;-73
2021/08/20 04:37:14;;;;;;;17.83;7.65;;;;;;;28.41;56.43;100516.94;4968899;28;20050;-72
2021/08/20 04:39:41;;;;;;;13.50;7.30;;;;;;;28.53;56.00;100517.06;4971323;28;20047;-72
2021/08/20 04:42:09;;;;;;;15.38;7.13;;;;;;;28.66;55.91;100519.88;4968380;28;20064;-72
2021/08/20 04:44:36;;;;;;;14.82;7.57;;;;;;;28.80;55.48;100519.91;4969919;28;20384;-70
2021/08/20 04:47:03;;;;;;;17.63;7.60;;;;;;;28.98;54.88;100526.00;4968573;28;20050;-72
2021/08/20 04:49:31;;;;;;;11.38;6.45;;;;;;;29.18;54.28;100521.97;4968201;28;20137;-73
2021/08/20 04:52:00;;;;;;;15.30;6.90;;;;;;;29.38;53.84;100531.59;4969668;28;20569;-73
2021/08/20 04:54:28;;;;;;;13.45;6.72;;;;;;;29.54;53.60;100533.16;4968843;28;20062;-73
2021/08/20 04:56:56;;;;;;;14.25;6.53;;;;;;;29.68;53.02;100537.69;4970569;28;20122;-72
2021/08/20 04:59:23;;;;;;;13.60;6.38;;;;;;;29.83;52.39;100536.66;4966796;28;20047;-70
2021/08/20 05:01:51;;;;;;;12.88;7.28;;;;;;;29.98;52.20;100538.38;4969267;28;20042;-70
2021/08/20 05:04:18;;;;;;;13.00;6.80;;;;;;;30.07;52.30;100540.44;4968823;28;20047;-69
2021/08/20 05:06:46;;;;;;;13.90;6.88;;;;;;;30.22;52.49;100534.94;4971807;28;20043;-70
2021/08/20 05:09:16;;;;;;;13.07;7.05;;;;;;;30.36;52.37;100538.44;4967226;28;20046;-70
2021/08/20 05:11:43;;;;;;;15.50;6.90;;;;;;;30.45;52.21;100540.53;4969519;28;20046;-69
2021/08/20 05:14:10;;;;;;;10.82;6.55;;;;;;;30.65;52.04;100549.19;4967192;28;20077;-69
2021/08/20 05:16:38;;;;;;;13.48;7.20;;;;;;;30.81;51.68;100550.69;4963659;28;20042;-70
2021/08/20 05:19:06;;;;;;;12.38;6.72;;;;;;;30.99;50.98;100553.03;4965608;28;20113;-69
2021/08/20 05:21:33;;;;;;;11.98;6.85;;;;;;;31.17;49.93;100551.75;4970275;28;20505;-70
2021/08/20 05:24:01;;;;;;;10.73;5.97;;;;;;;31.32;49.41;100555.19;4967317;28;20481;-70
2021/08/20 05:26:29;;;;;;;10.93;6.20;;;;;;;31.49;49.04;100569.34;4968951;28;20403;-70
2021/08/20 05:28:57;;;;;;;10.90;5.53;;;;;;;31.62;48.11;100567.47;4966692;28;20054;-70
2021/08/20 05:31:24;;;;;;;9.43;5.72;;;;;;;31.73;47.90;100561.19;4966637;28;20396;-69
2021/08/20 05:33:51;;;;;;;14.23;6.63;;;;;;;31.89;47.48;100571.84;4966079;28;20035;-69
2021/08/20 05:36:19;;;;;;;13.35;6.78;;;;;;;32.04;47.43;100567.91;4968605;28;20046;-69
2021/08/20 05:38:48;;;;;;;12.43;6.88;;;;;;;32.13;47.20;100569.94;4968363;28;20041;-71
2021/08/20 05:41:15;;;;;;;13.52;6.53;;;;;;;32.23;47.48;100570.16;4970836;28;20053;-70
2021/08/20 05:43:44;;;;;;;12.13;6.95;;;;;;;32.36;47.31;100570.94;4963437;28;20046;-70
2021/08/20 05:46:11;;;;;;;13.57;6.32;;;;;;;32.51;47.67;100577.03;4963641;28;20080;-69
2021/08/20 05:48:39;;;;;;;13.00;6.10;;;;;;;32.75;47.18;100583.38;4968373;28;20392;-70
2021/08/20 05:51:07;;;;;;;13.30;6.32;;;;;;;32.96;46.58;100581.63;4965280;28;20450;-70
2021/08/20 05:53:34;;;;;;;10.43;5.85;;;;;;;33.11;46.22;100579.50;4964552;28;20054;-70
2021/08/20 05:56:03;;;;;;;12.85;6.25;;;;;;;33.30;46.27;100577.03;4965820;28;20145;-70
2021/08/20 05:58:30;;;;;;;10.68;6.53;;;;;;;33.28;45.99;100591.88;4964629;28;20380;-72
2021/08/20 06:00:59;;;;;;;10.77;6.18;;;;;;;33.44;45.75;100586.84;4962437;28;20043;-71
2021/08/20 06:03:26;;;;;;;13.52;5.90;;;;;;;33.69;45.78;100586.56;4961022;28;20057;-72
2021/08/20 06:05:53;;;;;;;12.07;5.97;;;;;;;33.87;45.08;100584.19;4965210;28;20057;-72
2021/08/20 06:08:20;;;;;;;11.88;6.47;;;;;;;33.79;44.44;100583.97;4962718;28;20058;-71
2021/08/20 06:10:48;;;;;;;12.05;6.25;;;;;;;33.83;44.28;100575.34;4965955;28;20046;-70
2021/08/20 06:13:16;;;;;;;11.70;6.10;;;;;;;33.95;44.36;100590.75;4960524;28;20581;-71
2021/08/20 06:15:43;;;;;;;16.42;6.13;;;;;;;34.15;43.94;100583.56;4964230;28;20046;-71
2021/08/20 06:18:12;;;;;;;10.82;6.07;;;;;;;34.20;43.56;100585.94;4961281;28;20051;-71
2021/08/20 06:20:40;;;;;;;12.23;6.20;;;;;;;34.27;43.24;100585.28;4965778;28;20047;-71
2021/08/20 06:23:09;;;;;;;14.55;6.00;;;;;;;34.32;43.24;100582.16;4968604;28;20063;-72
2021/08/20 06:25:36;;;;;;;13.63;6.78;;;;;;;34.45;43.06;100580.09;4965540;28;20039;-71
2021/08/20 06:28:03;;;;;;;11.18;6.07;;;;;;;34.57;42.71;100576.28;4966059;28;20097;-73
2021/08/20 06:30:31;;;;;;;13.43;6.15;;;;;;;34.48;42.95;100588.03;4948175;28;20046;-72
2021/08/20 06:32:58;;;;;;;11.50;5.78;;;;;;;34.48;42.84;100579.81;4970474;28;20501;-71
2021/08/20 06:35:27;;;;;;;14.07;6.15;;;;;;;34.49;42.43;100588.91;4969725;28;20047;-72
2021/08/20 06:37:54;;;;;;;12.93;5.80;;;;;;;34.44;42.28;100599.41;4972495;28;20434;-73
2021/08/20 06:40:22;;;;;;;14.43;6.40;;;;;;;34.42;42.20;100595.91;4971863;28;20059;-71
2021/08/20 06:42:49;;;;;;;18.80;5.97;;;;;;;34.36;42.14;100597.31;4972561;28;20090;-73
2021/08/20 06:45:16;;;;;;;11.00;5.88;;;;;;;34.44;42.49;100600.28;4972288;28;20047;-72
2021/08/20 06:47:43;;;;;;;10.85;5.95;;;;;;;34.45;42.01;100606.63;4971945;28;20058;-73
2021/08/20 06:50:11;;;;;;;10.15;5.65;;;;;;;34.51;42.49;100617.06;4971651;28;20047;-72
2021/08/20 06:52:40;;;;;;;12.82;5.88;;;;;;;34.68;42.41;100608.22;4972409;28;20138;-72
2021/08/20 06:55:08;;;;;;;16.67;5.60;;;;;;;34.75;42.20;100609.47;4971754;28;20430;-73
2021/08/20 06:57:36;;;;;;;13.60;5.47;;;;;;;34.91;41.95;100623.59;4972031;28;20462;-71
2021/08/20 07:00:04;;;;;;;13.48;5.65;;;;;;;35.08;41.77;100616.59;4971824;28;20047;-71
2021/08/20 07:02:31;;;;;;;13.07;5.50;;;;;;;35.25;42.03;100628.84;4971540;28;20031;-71
2021/08/20 07:04:58;;;;;;;15.65;5.97;;;;;;;35.45;41.85;100626.03;4970925;28;20047;-71
2021/08/20 07:07:29;;;;;;;12.15;5.55;;;;;;;35.57;41.40;100629.56;4966887;28;20797;-72
2021/08/20 07:09:58;;;;;;;13.48;5.15;;;;;;;35.53;41.22;100623.47;4969325;28;20097;-70
2021/08/20 07:12:25;;;;;;;13.38;5.93;;;;;;;35.56;41.18;100636.94;4966334;28;20043;-71
2021/08/20 07:14:53;;;;;;;9.00;5.20;;;;;;;35.66;41.19;100636.06;4967451;28;20703;-72
2021/08/20 07:17:20;;;;;;;11.52;5.32;;;;;;;35.67;41.15;100635.06;4968337;28;20042;-70
2021/08/20 07:19:47;;;;;;;10.65;5.22;;;;;;;35.68;41.19;100625.81;4969747;28;20494;-68
2021/08/20 07:22:14;;;;;;;9.88;5.20;;;;;;;35.60;41.30;100644.88;4970253;28;20049;-71
2021/08/20 07:24:42;;;;;;;14.13;6.00;;;;;;;35.67;41.71;100652.41;4968983;28;20125;-72
2021/08/20 07:27:10;;;;;;;11.45;5.40;;;;;;;35.78;41.49;100644.09;4970631;28;20430;-72
2021/08/20 07:29:38;;;;;;;10.95;4.82;;;;;;;35.93;41.60;100639.06;4970388;28;20055;-72
2021/08/20 07:32:06;;;;;;;12.63;5.95;;;;;;;35.79;41.87;100644.97;4971236;28;20045;-71
2021/08/20 07:34:35;;;;;;;13.98;5.60;;;;;;;35.82;41.96;100650.19;4969209;28;20051;-71
2021/08/20 07:37:02;;;;;;;10.95;5.60;;;;;;;35.90;42.00;100658.59;4971657;28;20038;-72
2021/08/20 07:39:30;;;;;;;10.68;5.18;;;;;;;35.91;41.99;100655.69;4971087;28;20067;-72
2021/08/20 07:41:58;;;;;;;14.63;5.88;;;;;;;35.81;41.96;100653.94;4971510;28;20054;-72
2021/08/20 07:44:27;;;;;;;13.88;5.82;;;;;;;35.86;42.28;100658.00;4971122;28;20038;-71
2021/08/20 07:46:54;;;;;;;12.35;6.00;;;;;;;35.96;41.94;100655.28;4970926;28;20039;-72
2021/08/20 07:49:21;;;;;;;11.38;6.13;;;;;;;36.03;41.97;100661.97;4970941;28;20051;-72
2021/08/20 07:51:49;;;;;;;13.13;6.28;;;;;;;36.06;41.92;100656.16;4970028;28;20064;-71
2021/08/20 07:54:16;;;;;;;11.13;6.40;;;;;;;36.08;41.99;100653.28;4970979;28;20058;-72
2021/08/20 07:56:44;;;;;;;11.80;5.65;;;;;;;36.21;41.72;100674.03;4970153;28;20038;-71
2021/08/20 07:59:11;;;;;;;12.48;5.97;;;;;;;36.23;41.71;100662.88;4970052;28;20062;-71
2021/08/20 08:01:40;;;;;;;13.88;5.72;;;;;;;36.24;41.26;100659.97;4971277;28;20054;-70
2021/08/20 08:04:07;;;;;;;18.00;6.40;;;;;;;36.17;41.52;100663.47;4971404;28;20053;-72
2021/08/20 08:06:35;;;;;;;14.68;5.80;;;;;;;36.24;41.28;100673.72;4971712;28;20624;-71
2021/08/20 08:09:03;;;;;;;10.35;6.10;;;;;;;36.34;40.69;100682.00;4971184;28;20065;-72
2021/08/20 08:11:32;;;;;;;11.48;5.47;;;;;;;36.33;40.21;100675.63;4970140;28;20039;-73
2021/08/20 08:14:03;;;;;;;11.02;5.47;;;;;;;36.45;39.88;100681.84;4971111;28;20074;-71
2021/08/20 08:16:31;;;;;;;14.75;6.20;;;;;;;36.67;39.74;100678.84;4971338;28;20050;-71
2021/08/20 08:19:01;;;;;;;11.77;5.10;;;;;;;36.65;39.92;100672.59;4971222;28;20071;-71
2021/08/20 08:21:28;;;;;;;14.45;6.50;;;;;;;36.31;40.19;100683.13;4971041;28;20384;-71
2021/08/20 08:23:56;;;;;;;10.27;5.55;;;;;;;36.41;40.26;100677.66;4970665;28;20128;-70
2021/08/20 08:26:24;;;;;;;12.20;6.32;;;;;;;36.52;39.54;100690.38;4971196;28;20042;-72
2021/08/20 08:28:51;;;;;;;15.35;6.20;;;;;;;36.42;39.35;100689.53;4971228;28;20035;-72
2021/08/20 08:31:19;;;;;;;13.75;6.55;;;;;;;36.43;39.80;100689.38;4970617;28;20508;-70
2021/08/20 08:33:46;;;;;;;13.00;6.00;;;;;;;36.44;39.86;100691.09;4970625;28;20047;-72
2021/08/20 08:36:15;;;;;;;12.25;6.18;;;;;;;36.51;39.31;100685.91;4970226;28;20058;-71
2021/08/20 08:38:42;;;;;;;10.48;5.22;;;;;;;36.54;39.28;100691.13;4970385;28;20423;-71
2021/08/20 08:41:09;;;;;;;10.40;5.30;;;;;;;36.60;39.56;100682.28;4970841;28;20043;-71
2021/08/20 08:43:37;;;;;;;10.85;5.43;;;;;;;36.62;39.62;100694.03;4971209;28;20049;-71
2021/08/20 08:46:09;;;;;;;10.02;5.15;;;;;;;36.90;39.21;100684.00;4970201;28;20122;-75
2021/08/20 08:48:40;;;;;;;11.80;5.68;;;;;;;36.70;39.70;100680.41;4971009;28;20035;-71
2021/08/20 08:51:10;;;;;;;13.75;5.82;;;;;;;36.60;39.77;100685.03;4971067;28;20051;-71
2021/08/20 08:53:39;;;;;;;9.75;4.47;;;;;;;36.61;38.48;100684.91;4973832;28;20039;-71
2021/08/20 08:56:08;;;;;;;10.60;4.63;;;;;;;36.88;37.82;100686.06;4974061;28;20046;-72
2021/08/20 08:58:36;;;;;;;9.85;4.90;;;;;;;37.03;36.81;100693.69;4974999;28;20495;-71
2021/08/20 09:01:28;;;;;;;11.10;5.35;;;;;;;37.22;36.14;100684.53;4974685;28;20039;-71
2021/08/20 09:04:13;;;;;;;11.60;4.47;;;;;;;37.38;34.72;100695.81;4974102;28;20051;-71
2021/08/20 09:06:42;;;;;;;9.05;4.93;;;;;;;37.44;34.83;100697.97;4972132;28;20039;-71
2021/08/20 09:09:12;;;;;;;8.02;4.22;;;;;;;37.51;35.05;100690.84;4973338;28;20059;-71
2021/08/20 09:11:42;;;;;;;10.85;4.47;;;;;;;37.38;35.21;100690.31;4973746;28;20054;-72
2021/08/20 09:14:10;;;;;;;12.13;5.10;;;;;;;37.18;35.95;100688.63;4973585;28;20530;-71
2021/08/20 09:16:39;;;;;;;9.70;4.38;;;;;;;37.18;35.30;100694.13;4974864;28;20450;-71
2021/08/20 09:19:14;;;;;;;6.93;3.85;;;;;;;37.14;34.19;100678.06;4957396;28;20065;-71
2021/08/20 09:21:43;;;;;;;13.25;4.57;;;;;;;37.26;34.63;100687.88;4972587;28;20047;-71
2021/08/20 09:24:31;;;;;;;9.73;4.60;;;;;;;37.25;33.50;100694.41;4974212;28;20047;-71
2021/08/20 09:27:21;;;;;;;9.90;4.85;;;;;;;37.12;35.10;100700.25;4973378;28;20560;-72
2021/08/20 09:29:57;;;;;;;13.90;5.32;;;;;;;37.10;35.93;100693.97;4974016;28;20042;-72
2021/08/20 09:32:24;;;;;;;8.52;4.15;;;;;;;36.85;35.68;100689.09;4965809;28;20039;-71
2021/08/20 09:34:52;;;;;;;10.63;4.95;;;;;;;36.73;36.10;100691.16;4973400;28;20039;-71
2021/08/20 09:37:21;;;;;;;8.88;4.75;;;;;;;36.73;36.08;100694.78;4973936;28;20421;-71
2021/08/20 09:39:52;;;;;;;14.57;5.55;;;;;;;36.84;36.79;100696.47;4974194;28;20407;-71
2021/08/20 09:42:20;;;;;;;11.25;5.15;;;;;;;36.68;37.25;100693.47;4973146;28;20142;-70
2021/08/20 09:45:08;;;;;;;12.50;5.15;;;;;;;36.60;37.98;100694.16;4973804;28;20049;-71
2021/08/20 09:47:42;;;;;;;11.48;5.30;;;;;;;36.55;37.72;100687.38;4973053;28;20058;-71
2021/08/20 09:50:09;;;;;;;11.25;4.78;;;;;;;36.34;37.93;100707.63;4973265;28;20057;-71
2021/08/20 09:52:36;;;;;;;14.02;5.20;;;;;;;35.99;38.43;100709.09;4973843;28;20039;-71
2021/08/20 09:55:06;;;;;;;9.35;5.20;;;;;;;36.12;38.64;100712.47;4972875;28;20042;-71
2021/08/20 09:57:35;;;;;;;12.75;5.32;;;;;;;36.08;38.75;100705.50;4973618;28;20065;-71
2021/08/20 10:00:04;;;;;;;9.23;5.10;;;;;;;36.12;38.46;100699.59;4972323;28;20050;-71
2021/08/20 10:02:36;;;;;;;10.77;5.07;;;;;;;36.16;38.41;100712.06;4969319;28;20643;-71
2021/08/20 10:05:04;;;;;;;12.80;4.85;;;;;;;36.10;38.41;100712.63;4971355;28;20039;-71
2021/08/20 10:07:37;;;;;;;9.90;4.57;;;;;;;36.07;37.89;100704.66;4972108;28;20050;-70
2021/08/20 10:10:08;;;;;;;9.45;4.80;;;;;;;35.91;37.86;100710.66;4971199;28;20066;-71
2021/08/20 10:12:41;;;;;;;10.40;5.07;;;;;;;35.95;37.87;100709.41;4971859;28;20308;-71
2021/08/20 10:15:11;;;;;;;11.35;5.18;;;;;;;36.00;37.51;100711.72;4972323;28;20092;-71
2021/08/20 10:17:39;;;;;;;9.18;4.82;;;;;;;36.01;37.10;100718.09;4972588;28;20039;-72
2021/08/20 10:20:07;;;;;;;8.85;4.78;;;;;;;35.97;36.68;100703.75;4972817;28;20042;-71
2021/08/20 10:22:34;;;;;;;10.45;4.32;;;;;;;35.80;35.98;100709.91;4973047;28;20035;-71
2021/08/20 10:25:02;;;;;;;14.20;4.72;;;;;;;35.71;35.96;100713.53;4970930;28;20043;-70
2021/08/20 10:27:34;;;;;;;10.40;5.03;;;;;;;35.61;36.56;100707.94;4971687;28;20039;-71
2021/08/20 10:30:02;;;;;;;10.45;4.97;;;;;;;35.61;36.81;100693.31;4972215;28;20517;-70
2021/08/20 10:32:29;;;;;;;9.98;4.70;;;;;;;35.72;36.45;100709.72;4973185;28;20513;-70
2021/08/20 10:34:56;;;;;;;10.80;5.05;;;;;;;35.69;36.51;100716.41;4971695;28;20047;-70
2021/08/20 10:37:30;;;;;;;11.05;5.50;;;;;;;35.75;36.79;100704.84;4971307;28;20073;-71
2021/08/20 10:39:59;;;;;;;;;;;;;;;35.68;37.19;100719.25;4972568;28;20039;-72
2021/08/20 10:42:40;;;;;;;10.75;4.97;;;;;;;35.58;36.80;100706.31;4971701;28;19930;-71
2021/08/20 10:45:09;;;;;;;10.40;5.13;;;;;;;35.55;37.06;100708.50;4971221;28;20054;-71
2021/08/20 10:47:37;;;;;;;10.10;5.43;;;;;;;35.61;37.15;100712.56;4969500;28;20047;-72
2021/08/20 10:50:10;;;;;;;12.73;5.18;;;;;;;35.79;36.80;100716.41;4971591;28;20039;-72
2021/08/20 10:52:39;;;;;;;;;;;;;;;35.75;36.66;100704.84;4962177;28;20051;-69
2021/08/20 10:55:24;;;;;;;8.68;4.32;;;;;;;35.71;36.81;100703.38;4966909;28;19922;-71
2021/08/20 10:58:12;;;;;;;11.70;5.20;;;;;;;35.84;36.55;100704.00;4969617;28;20050;-69
2021/08/20 11:00:53;;;;;;;9.20;4.63;;;;;;;36.04;36.36;100710.41;4968891;28;20047;-70
2021/08/20 11:03:41;;;;;;;9.23;5.03;;;;;;;36.26;35.65;100710.22;4966831;28;20054;-67
2021/08/20 11:06:09;;;;;;;7.18;4.95;;;;;;;36.36;35.38;100720.38;4969030;28;20126;-70
2021/08/20 11:08:39;;;;;;;10.00;4.97;;;;;;;36.38;34.40;100718.31;4967723;28;20047;-72
2021/08/20 11:11:47;;;;;;;9.07;4.25;;;;;;;36.52;33.92;100707.78;4967044;28;20049;-71
2021/08/20 11:14:36;;;;;;;13.13;5.20;;;;;;;36.63;33.18;100710.38;4969331;28;20162;-70
2021/08/20 11:17:05;;;;;;;7.72;4.22;;;;;;;36.67;32.23;100706.38;4966968;28;20411;-70
2021/08/20 11:19:54;;;;;;;9.23;4.45;;;;;;;36.79;31.25;100707.06;4966587;28;20391;-70
2021/08/20 11:22:24;;;;;;;13.13;4.68;;;;;;;36.76;32.01;100701.00;4967045;28;20125;-69
2021/08/20 11:25:11;;;;;;;10.40;4.78;;;;;;;37.14;32.37;100695.47;4965646;28;20043;-70
2021/08/20 11:27:39;;;;;;;10.73;4.38;;;;;;;37.21;32.28;100695.75;4970457;28;20043;-71